Zumarraga, Spain
Current Conditions -  °F | °C
As of 2:30 PM on Friday 19 Dec 2014 (Local Time) from LEVT Reporting Station
Broken Clouds Broken Clouds  
Wind Chill: 48°   Ceiling: 2100
Heat Index: 48°   Visibility: 6mi
Dew Point: 41°   Wind: 2mph
Humidity: 76%   Direction: NA
Pressure: 30.48"   Gusts: NA
Location:  43.09°N, 2.31°W
Report Text: LEVT 191330Z VRB02KT 9999 BKN021 09/05 Q1032
Loading
Personal Weather Stations






























Interactive Weather Map New forecast layout! Learn more

10-Day Weather Forecast

Advertisements
Track Severe Weather on mobile